Time;durP1;ratioP1;P1;durP2;ratioP2;P2;SDS_P1;SDS_P2;PMS_P1;PMS_P2;Temp;Humidity;BMP_temperature;BMP_pressure;BME280_temperature;BME280_humidity;BME280_pressure;Samples;Min_cycle;Max_cycle;Signal;HPM_P1;HPM_P2
2022/12/01 00:00:24;;;;;;;;;;;;;;;4.02;100.00;102847.41;5051257;28;20367;-75
2022/12/01 00:02:49;;;;;;;;;;;;;;;4.03;100.00;102846.59;5052517;28;19932;-75
2022/12/01 00:05:15;;;;;;;;;;;;;;;4.04;100.00;102845.72;5055327;28;20005;-75
2022/12/01 00:07:40;;;;;;;;;;;;;;;4.05;100.00;102845.72;5053049;28;19928;-75
2022/12/01 00:12:49;;;;;;;;;;;;;;;4.07;100.00;102853.59;5058531;28;20371;-74
2022/12/01 00:15:15;;;;;;;;;;;;;;;4.06;100.00;102857.09;5057424;28;19939;-75
2022/12/01 00:17:42;;;;;;;;;;;;;;;4.05;100.00;102850.09;5060289;28;19932;-75
2022/12/01 00:20:08;;;;;;;;;;;;;;;4.06;100.00;102851.84;5062334;28;21516;-75
2022/12/01 00:22:33;;;;;;;;;;;;;;;4.07;100.00;102849.25;5064968;28;19939;-74
2022/12/01 00:24:59;;;;;;;;;;;;;;;4.08;100.00;102851.03;5066493;28;19929;-75
2022/12/01 00:27:24;;;;;;;;;;;;;;;4.10;100.00;102852.78;5033355;28;20383;-75
2022/12/01 00:29:49;;;;;;;;;;;;;;;4.08;100.00;102847.50;5064526;28;19940;-75
2022/12/01 00:32:15;;;;;;;;;;;;;;;4.08;100.00;102844.88;5058504;28;19939;-75
2022/12/01 00:34:40;;;;;;;;;;;;;;;4.10;100.00;102852.78;5055786;28;20657;-75
2022/12/01 00:37:05;;;;;;;;;;;;;;;4.07;100.00;102846.63;5058041;28;20046;-74
2022/12/01 00:39:31;;;;;;;;;;;;;;;4.07;100.00;102848.38;5058037;28;20422;-75
2022/12/01 00:41:56;;;;;;;;;;;;;;;4.07;100.00;102843.13;5054954;28;19933;-75
2022/12/01 00:44:22;;;;;;;;;;;;;;;4.06;100.00;102842.25;5064032;28;19940;-75
2022/12/01 00:46:47;;;;;;;;;;;;;;;4.06;100.00;102841.38;5060248;28;19986;-75
2022/12/01 00:49:12;;;;;;;;;;;;;;;4.06;100.00;102836.13;5078001;28;20074;-75
2022/12/01 00:51:38;;;;;;;;;;;;;;;4.06;100.00;102846.59;5058658;28;19932;-75
2022/12/01 00:54:03;;;;;;;;;;;;;;;4.05;100.00;102850.09;5047409;28;21613;-75
2022/12/01 00:56:29;;;;;;;;;;;;;;;4.03;100.00;102841.34;5061606;28;20581;-75
2022/12/01 00:58:54;;;;;;;;;;;;;;;4.03;100.00;102843.97;5061041;28;19932;-75
2022/12/01 01:01:20;;;;;;;;;;;;;;;4.01;100.00;102848.28;5027286;28;19990;-75
2022/12/01 01:03:45;;;;;;;;;;;;;;;4.02;100.00;102850.03;5047584;28;20022;-75
2022/12/01 01:06:11;;;;;;;;;;;;;;;4.03;100.00;102851.81;5049113;28;19956;-75
2022/12/01 01:08:37;;;;;;;;;;;;;;;4.02;100.00;102848.31;5044710;28;20654;-75
2022/12/01 01:11:02;;;;;;;;;;;;;;;4.03;100.00;102846.59;5063119;28;19936;-75
2022/12/01 01:13:31;;;;;;;;;;;;;;;4.03;100.00;102846.59;5061907;28;19929;-74
2022/12/01 01:15:58;;;;;;;;;;;;;;;4.04;100.00;102838.72;5042239;28;20311;-75
2022/12/01 01:18:23;;;;;;;;;;;;;;;4.04;100.00;102848.34;5058387;28;19924;-75
2022/12/01 01:21:02;;;;;;;;;;;;;;;4.04;100.00;102850.97;5060798;28;20286;-75
2022/12/01 01:23:27;;;;;;;;;;;;;;;4.03;100.00;102846.59;5059907;28;19928;-75
2022/12/01 01:25:52;;;;;;;;;;;;;;;4.02;100.00;102856.16;5060235;28;20494;-75
2022/12/01 01:28:18;;;;;;;;;;;;;;;4.02;100.00;102856.16;5056780;28;19928;-75
2022/12/01 01:30:44;;;;;;;;;;;;;;;4.03;100.00;102846.59;5042956;28;20635;-75
2022/12/01 01:33:09;;;;;;;;;;;;;;;4.03;100.00;102846.59;5053817;28;19934;-75
2022/12/01 01:35:34;;;;;;;;;;;;;;;4.02;100.00;102845.69;5060211;28;20330;-75
2022/12/01 01:38:00;;;;;;;;;;;;;;;4.03;100.00;102850.06;5059759;28;20061;-75
2022/12/01 01:40:25;;;;;;;;;;;;;;;4.03;100.00;102847.44;5057293;28;20050;-75
2022/12/01 01:42:51;;;;;;;;;;;;;;;4.03;100.00;102841.34;5061785;28;19940;-74
2022/12/01 01:45:18;;;;;;;;;;;;;;;4.03;100.00;102850.06;5055428;28;20536;-75
2022/12/01 01:47:44;;;;;;;;;;;;;;;4.04;100.00;102850.97;5061376;28;19932;-75
2022/12/01 01:50:10;;;;;;;;;;;;;;;4.03;100.00;102851.81;5055308;28;19982;-75
2022/12/01 01:52:37;;;;;;;;;;;;;;;4.03;100.00;102851.81;5044477;28;20407;-75
2022/12/01 01:55:03;;;;;;;;;;;;;;;4.03;100.00;102851.81;5058630;28;19939;-74
2022/12/01 01:57:30;;;;;;;;;;;;;;;4.01;100.00;102848.28;5058185;28;19928;-75
2022/12/01 02:00:06;;;;;;;;;;;;;;;4.02;100.00;102865.75;5054596;28;19928;-74
2022/12/01 02:02:31;;;;;;;;;;;;;;;4.03;100.00;102859.69;5045089;28;19932;-75
2022/12/01 02:04:59;;;;;;;;;;;;;;;4.04;100.00;102869.31;5042848;28;20389;-75
2022/12/01 02:07:25;;;;;;;;;;;;;;;4.05;100.00;102863.19;5056422;28;19982;-75
2022/12/01 02:09:50;;;;;;;;;;;;;;;4.06;100.00;102864.97;5061348;28;20015;-75
2022/12/01 02:12:16;;;;;;;;;;;;;;;4.08;100.00;102873.72;5055403;28;19988;-75
2022/12/01 02:14:41;;;;;;;;;;;;;;;4.07;100.00;102867.63;5062428;28;19927;-75
2022/12/01 02:17:11;;;;;;;;;;;;;;;4.08;100.00;102868.47;5059185;28;19937;-75
2022/12/01 02:19:49;;;;;;;;;;;;;;;4.07;100.00;102858.84;5053278;28;19973;-75
2022/12/01 02:22:20;;;;;;;;;;;;;;;4.06;100.00;102858.00;5056323;28;19957;-75
2022/12/01 02:24:50;;;;;;;;;;;;;;;4.05;100.00;102855.34;5055254;28;20006;-75
2022/12/01 02:27:24;;;;;;;;;;;;;;;4.04;100.00;102853.59;5051991;28;20582;-75
2022/12/01 02:30:00;;;;;;;;;;;;;;;4.00;100.00;102851.75;5055942;28;19978;-75
2022/12/01 02:32:26;;;;;;;;;;;;;;;3.97;100.00;102849.97;5055436;28;19943;-75
2022/12/01 02:34:57;;;;;;;;;;;;;;;3.96;100.00;102850.84;5053101;28;20029;-75
2022/12/01 02:37:25;;;;;;;;;;;;;;;3.96;100.00;102849.97;5051964;28;20352;-75
2022/12/01 02:40:10;;;;;;;;;;;;;;;3.94;100.00;102853.44;5051466;28;20121;-75
2022/12/01 02:42:53;;;;;;;;;;;;;;;3.93;100.00;102858.66;5054793;28;19928;-75
2022/12/01 02:45:38;;;;;;;;;;;;;;;3.94;100.00;102853.44;5043161;28;19957;-75
2022/12/01 02:48:05;;;;;;;;;;;;;;;3.93;100.00;102849.06;5011352;28;20051;-75
2022/12/01 02:50:31;;;;;;;;;;;;;;;3.91;100.00;102853.41;5054846;28;19924;-75
2022/12/01 02:52:56;;;;;;;;;;;;;;;3.93;100.00;102851.66;5059907;28;19975;-75
2022/12/01 02:55:22;;;;;;;;;;;;;;;3.94;100.00;102850.81;5061765;28;20470;-75
2022/12/01 02:57:47;;;;;;;;;;;;;;;3.93;100.00;102846.44;5060025;28;20355;-75
2022/12/01 03:00:13;;;;;;;;;;;;;;;3.93;100.00;102843.81;5059154;28;19944;-75
2022/12/01 03:02:43;;;;;;;;;;;;;;;3.94;100.00;102850.81;5040824;28;20496;-75
2022/12/01 03:05:11;;;;;;;;;;;;;;;3.93;100.00;102845.56;5061068;28;19924;-75
2022/12/01 03:07:43;;;;;;;;;;;;;;;3.92;100.00;102849.91;5044520;28;19967;-75
2022/12/01 03:10:24;;;;;;;;;;;;;;;3.92;100.00;102843.81;5041979;28;19924;-75
2022/12/01 03:12:54;;;;;;;;;;;;;;;3.91;100.00;102847.25;5058612;28;20637;-75
2022/12/01 03:15:35;;;;;;;;;;;;;;;3.91;100.00;102852.50;5058472;28;19928;-75
2022/12/01 03:18:09;;;;;;;;;;;;;;;3.89;100.00;102847.25;5061917;28;19935;-75
2022/12/01 03:20:57;;;;;;;;;;;;;;;3.90;100.00;102850.75;5060963;28;19932;-74
2022/12/01 03:23:23;;;;;;;;;;;;;;;3.91;100.00;102855.13;5057012;28;19974;-74
2022/12/01 03:25:50;;;;;;;;;;;;;;;3.90;100.00;102851.63;5074678;28;20717;-74
2022/12/01 03:28:16;;;;;;;;;;;;;;;3.91;100.00;102849.88;5055155;28;19967;-74
2022/12/01 03:30:42;;;;;;;;;;;;;;;3.91;100.00;102852.50;5034868;28;20382;-74
2022/12/01 03:33:13;;;;;;;;;;;;;;;3.91;100.00;102849.88;5053635;28;19931;-75
2022/12/01 03:35:40;;;;;;;;;;;;;;;3.91;100.00;102845.53;5058046;28;19929;-74
2022/12/01 03:38:13;;;;;;;;;;;;;;;3.92;100.00;102849.06;5053158;28;20537;-74
2022/12/01 03:40:39;;;;;;;;;;;;;;;3.91;100.00;102845.53;5052707;28;19978;-74
2022/12/01 03:43:08;;;;;;;;;;;;;;;3.90;100.00;102846.41;5055590;28;20485;-74
2022/12/01 03:45:49;;;;;;;;;;;;;;;3.91;100.00;102842.03;5047180;28;21532;-74
2022/12/01 03:48:15;;;;;;;;;;;;;;;3.90;100.00;102840.25;5058031;28;19925;-74
2022/12/01 03:51:02;;;;;;;;;;;;;;;3.90;100.00;102835.91;5054667;28;20421;-74
2022/12/01 03:53:28;;;;;;;;;;;;;;;3.89;100.00;102843.75;5046162;28;19981;-74
2022/12/01 03:56:00;;;;;;;;;;;;;;;3.88;100.00;102842.00;5053217;28;20306;-74
2022/12/01 03:58:32;;;;;;;;;;;;;;;3.89;100.00;102849.00;5035870;28;20148;-74
2022/12/01 04:00:58;;;;;;;;;;;;;;;3.87;100.00;102851.56;5058808;28;19955;-74
2022/12/01 04:03:25;;;;;;;;;;;;;;;3.86;100.00;102855.06;5059668;28;19928;-74
2022/12/01 04:05:50;;;;;;;;;;;;;;;3.87;100.00;102853.34;5044994;28;20361;-74
2022/12/01 04:08:15;;;;;;;;;;;;;;;3.86;100.00;102857.69;5060232;28;19986;-74
2022/12/01 04:10:41;;;;;;;;;;;;;;;3.87;100.00;102861.19;5058361;28;20299;-74
2022/12/01 04:13:11;;;;;;;;;;;;;;;3.85;100.00;102853.31;5055436;28;20014;-75
2022/12/01 04:15:36;;;;;;;;;;;;;;;3.85;100.00;102858.53;5063366;28;19986;-74
2022/12/01 04:18:02;;;;;;;;;;;;;;;3.84;100.00;102854.16;5049028;28;19934;-74
2022/12/01 04:20:27;;;;;;;;;;;;;;;3.84;100.00;102861.13;5061858;28;19971;-74
2022/12/01 04:22:52;;;;;;;;;;;;;;;3.84;100.00;102856.78;5042879;28;20567;-75
2022/12/01 04:25:18;;;;;;;;;;;;;;;3.85;100.00;102852.41;5057955;28;19945;-74
2022/12/01 04:27:43;;;;;;;;;;;;;;;3.85;100.00;102865.50;5059753;28;19932;-75
2022/12/01 04:30:09;;;;;;;;;;;;;;;3.87;100.00;102866.44;5057049;28;19935;-74
2022/12/01 04:32:38;;;;;;;;;;;;;;;3.86;100.00;102873.41;5062476;28;20300;-74
2022/12/01 04:35:05;;;;;;;;;;;;;;;3.86;100.00;102868.16;5061197;28;19934;-74
2022/12/01 04:37:30;;;;;;;;;;;;;;;3.86;100.00;102869.94;5054234;28;19971;-74
2022/12/01 04:39:56;;;;;;;;;;;;;;;3.86;100.00;102875.16;5055951;28;20126;-75
2022/12/01 04:42:21;;;;;;;;;;;;;;;3.86;100.00;102869.94;5058887;28;19939;-74
2022/12/01 04:44:47;;;;;;;;;;;;;;;3.86;100.00;102870.78;5059142;28;20005;-74
2022/12/01 04:47:12;;;;;;;;;;;;;;;3.84;100.00;102872.50;5057898;28;20359;-74
2022/12/01 04:49:37;;;;;;;;;;;;;;;3.82;100.00;102870.72;5059254;28;20406;-74
2022/12/01 04:52:03;;;;;;;;;;;;;;;3.81;100.00;102872.44;5067067;28;19976;-74
2022/12/01 04:54:28;;;;;;;;;;;;;;;3.81;100.00;102861.97;5064973;28;20874;-74
2022/12/01 04:56:54;;;;;;;;;;;;;;;3.80;100.00;102857.59;5064711;28;19972;-74
2022/12/01 04:59:19;;;;;;;;;;;;;;;3.82;100.00;102861.13;5066028;28;20059;-74
2022/12/01 05:01:46;;;;;;;;;;;;;;;3.83;100.00;102860.28;5052920;28;20390;-74
2022/12/01 05:04:12;;;;;;;;;;;;;;;3.84;100.00;102858.50;5066115;28;20205;-74
2022/12/01 05:06:41;;;;;;;;;;;;;;;3.86;100.00;102867.31;5063299;28;19928;-74
2022/12/01 05:09:06;;;;;;;;;;;;;;;3.86;100.00;102862.94;5040238;28;19932;-74
2022/12/01 05:11:35;;;;;;;;;;;;;;;3.88;100.00;102866.44;5064352;28;19931;-74
2022/12/01 05:14:00;;;;;;;;;;;;;;;3.89;100.00;102862.09;5059143;28;20395;-74
2022/12/01 05:16:26;;;;;;;;;;;;;;;3.88;100.00;102863.81;5061564;28;19932;-74
2022/12/01 05:21:37;;;;;;;;;;;;;;;3.90;100.00;102875.22;5055198;28;19935;-74
2022/12/01 05:24:02;;;;;;;;;;;;;;;3.90;100.00;102872.59;5049234;28;20006;-74
2022/12/01 05:26:28;;;;;;;;;;;;;;;3.89;100.00;102870.84;5059442;28;20947;-74
2022/12/01 05:28:53;;;;;;;;;;;;;;;3.89;100.00;102883.06;5051284;28;20386;-74
2022/12/01 05:31:19;;;;;;;;;;;;;;;3.90;100.00;102880.47;5059562;28;19933;-74
2022/12/01 05:33:44;;;;;;;;;;;;;;;3.91;100.00;102882.22;5058574;28;19932;-74
2022/12/01 05:36:09;;;;;;;;;;;;;;;3.92;100.00;102878.75;5058687;27;19932;-74
2022/12/01 05:38:35;;;;;;;;;;;;;;;3.92;100.00;102881.38;5058484;28;19931;-74
2022/12/01 05:41:00;;;;;;;;;;;;;;;3.93;100.00;102877.03;5034545;28;19939;-74
2022/12/01 05:43:26;;;;;;;;;;;;;;;3.93;100.00;102874.41;5058953;28;19928;-74
2022/12/01 05:45:51;;;;;;;;;;;;;;;3.92;100.00;102881.38;5058752;28;19943;-74
2022/12/01 05:48:16;;;;;;;;;;;;;;;3.93;100.00;102883.13;5060686;28;20655;-74
2022/12/01 05:50:42;;;;;;;;;;;;;;;3.94;100.00;102874.41;5040821;28;19957;-74
2022/12/01 05:53:09;;;;;;;;;;;;;;;3.93;100.00;102871.78;5057684;28;19928;-74
2022/12/01 05:55:34;;;;;;;;;;;;;;;3.92;100.00;102870.03;5062395;28;19936;-74
2022/12/01 05:58:00;;;;;;;;;;;;;;;3.93;100.00;102871.78;5043752;28;20001;-74
2022/12/01 06:00:25;;;;;;;;;;;;;;;3.92;100.00;102870.88;5040407;28;19954;-74
2022/12/01 06:02:50;;;;;;;;;;;;;;;3.92;100.00;102864.78;5058060;28;19940;-75
2022/12/01 06:05:16;;;;;;;;;;;;;;;3.91;100.00;102869.13;5057984;28;20444;-74
2022/12/01 06:07:41;;;;;;;;;;;;;;;3.92;100.00;102863.03;5059830;28;19971;-74
2022/12/01 06:10:08;;;;;;;;;;;;;;;3.92;100.00;102870.88;5055620;28;19985;-74
2022/12/01 06:12:33;;;;;;;;;;;;;;;3.93;100.00;102863.91;5050221;28;19928;-74
2022/12/01 06:14:59;;;;;;;;;;;;;;;3.94;100.00;102870.91;5056831;28;21538;-74
2022/12/01 06:17:24;;;;;;;;;;;;;;;3.93;100.00;102877.88;5061987;28;19936;-74
2022/12/01 06:19:49;;;;;;;;;;;;;;;3.94;100.00;102879.63;5053505;28;19940;-74
2022/12/01 06:22:18;;;;;;;;;;;;;;;3.94;100.00;102871.78;5057821;27;19934;-74
2022/12/01 06:24:43;;;;;;;;;;;;;;;3.96;100.00;102868.31;5054235;28;19935;-74
2022/12/01 06:27:09;;;;;;;;;;;;;;;3.96;100.00;102876.19;5055402;28;19929;-75
2022/12/01 06:29:34;;;;;;;;;;;;;;;3.97;100.00;102873.56;5054165;28;20376;-75
2022/12/01 06:31:59;;;;;;;;;;;;;;;3.99;100.00;102873.59;5048793;28;19932;-75
2022/12/01 06:34:25;;;;;;;;;;;;;;;3.98;100.00;102872.69;5059421;28;19971;-74
2022/12/01 06:36:50;;;;;;;;;;;;;;;3.99;100.00;102878.84;5024575;28;19935;-74
2022/12/01 06:39:16;;;;;;;;;;;;;;;3.98;100.00;102875.31;5056840;28;19967;-75
2022/12/01 06:41:41;;;;;;;;;;;;;;;4.00;100.00;102883.22;5051859;28;20291;-74
2022/12/01 06:44:07;;;;;;;;;;;;;;;4.00;100.00;102875.34;5042197;28;19967;-74
2022/12/01 06:46:32;;;;;;;;;;;;;;;4.01;100.00;102890.22;5042790;28;19958;-74
2022/12/01 06:48:58;;;;;;;;;;;;;;;4.00;100.00;102883.22;5038459;28;19924;-74
2022/12/01 06:51:23;;;;;;;;;;;;;;;4.01;100.00;102890.22;5063096;28;19935;-74
2022/12/01 06:53:55;;;;;;;;;;;;;;;4.00;100.00;102888.47;5044694;28;19928;-74
2022/12/01 06:56:20;;;;;;;;;;;;;;;3.99;100.00;102897.19;5061257;28;19981;-74
2022/12/01 06:58:47;;;;;;;;;;;;;;;4.00;100.00;102893.69;5050244;28;19928;-74
2022/12/01 07:01:13;;;;;;;;;;;;;;;4.01;100.00;102895.47;5063490;28;20371;-74
2022/12/01 07:03:38;;;;;;;;;;;;;;;3.98;100.00;102893.66;5060838;28;19933;-74
2022/12/01 07:06:04;;;;;;;;;;;;;;;3.96;100.00;102907.63;5050043;28;19932;-74
2022/12/01 07:08:30;;;;;;;;;;;;;;;3.91;100.00;102904.91;5060835;28;19963;-74
2022/12/01 07:11:02;;;;;;;;;;;;;;;3.85;100.00;102905.72;5056724;28;19931;-74
2022/12/01 07:13:28;;;;;;;;;;;;;;;3.82;100.00;102902.16;5030007;28;20442;-74
2022/12/01 07:15:53;;;;;;;;;;;;;;;3.77;100.00;102908.19;5049891;28;19928;-74
2022/12/01 07:18:19;;;;;;;;;;;;;;;3.72;100.00;102911.63;5063135;28;19982;-74
2022/12/01 07:20:44;;;;;;;;;;;;;;;3.69;100.00;102908.97;5061507;28;19932;-74
2022/12/01 07:23:09;;;;;;;;;;;;;;;3.64;100.00;102917.63;5040161;28;19949;-74
2022/12/01 07:25:35;;;;;;;;;;;;;;;3.59;100.00;102919.25;5059229;28;21488;-74
2022/12/01 07:28:00;;;;;;;;;;;;;;;3.57;100.00;102921.00;5054014;28;20295;-74
2022/12/01 07:30:25;;;;;;;;;;;;;;;3.53;100.00;102924.41;5052165;28;19928;-74
2022/12/01 07:32:51;;;;;;;;;;;;;;;3.49;100.00;102931.31;5062582;28;21430;-74
2022/12/01 07:35:16;;;;;;;;;;;;;;;3.44;100.00;102925.13;5048867;28;20371;-74
2022/12/01 07:37:42;;;;;;;;;;;;;;;3.38;100.00;102925.88;5053121;28;19939;-75
2022/12/01 07:40:09;;;;;;;;;;;;;;;3.34;100.00;102931.94;5053822;28;20022;-78
2022/12/01 07:42:34;;;;;;;;;;;;;;;3.32;100.00;102931.00;5046475;28;20449;-75
2022/12/01 07:45:00;;;;;;;;;;;;;;;3.29;100.00;102943.16;5056960;28;20031;-76
2022/12/01 07:47:25;;;;;;;;;;;;;;;3.25;100.00;102944.84;5055716;28;19928;-76
2022/12/01 07:49:51;;;;;;;;;;;;;;;3.21;100.00;102937.81;5054479;28;19928;-76
2022/12/01 07:52:16;;;;;;;;;;;;;;;3.18;100.00;102943.88;5024870;28;20015;-76
2022/12/01 07:54:45;;;;;;;;;;;;;;;3.15;100.00;102938.53;5054281;28;19985;-76
2022/12/01 07:57:13;;;;;;;;;;;;;;;3.11;100.00;102937.59;5055274;28;19940;-76
2022/12/01 07:59:39;;;;;;;;;;;;;;;3.08;100.00;102936.66;5054487;28;20310;-75
2022/12/01 08:02:04;;;;;;;;;;;;;;;3.05;100.00;102940.09;5055358;28;19925;-75
2022/12/01 08:04:30;;;;;;;;;;;;;;;3.02;100.00;102941.78;5046369;28;19924;-75
2022/12/01 08:06:55;;;;;;;;;;;;;;;3.00;100.00;102944.38;5061451;28;19928;-75
2022/12/01 08:09:21;;;;;;;;;;;;;;;2.98;100.00;102946.97;5073236;28;20073;-75
2022/12/01 08:11:46;;;;;;;;;;;;;;;2.97;100.00;102957.41;5058945;28;20386;-75
2022/12/01 08:14:12;;;;;;;;;;;;;;;2.97;100.00;102952.16;5060395;28;20405;-80
2022/12/01 08:16:37;;;;;;;;;;;;;;;2.97;100.00;102939.06;5045445;28;19931;-75
2022/12/01 08:19:02;;;;;;;;;;;;;;;2.95;100.00;102951.25;5061667;28;20422;-75
2022/12/01 08:21:28;;;;;;;;;;;;;;;2.94;100.00;102946.88;5063078;28;20001;-75
2022/12/01 08:23:54;;;;;;;;;;;;;;;2.93;100.00;102943.38;5062266;28;19924;-75
2022/12/01 08:26:21;;;;;;;;;;;;;;;2.93;100.00;102945.09;5060664;28;19981;-75
2022/12/01 08:28:49;;;;;;;;;;;;;;;2.92;100.00;102941.59;5055819;28;20579;-75
2022/12/01 08:31:24;;;;;;;;;;;;;;;2.92;100.00;102945.94;5028186;28;19946;-75
2022/12/01 08:33:50;;;;;;;;;;;;;;;2.90;100.00;102952.88;5062477;28;19928;-75
2022/12/01 08:36:16;;;;;;;;;;;;;;;2.90;100.00;102955.50;5061908;28;19936;-75
2022/12/01 08:38:45;;;;;;;;;;;;;;;2.87;100.00;102952.84;5035781;28;20344;-75
2022/12/01 08:41:11;;;;;;;;;;;;;;;2.87;100.00;102955.47;5056989;28;19920;-75
2022/12/01 08:43:41;;;;;;;;;;;;;;;2.86;100.00;102954.56;5044936;28;19940;-75
2022/12/01 08:46:07;;;;;;;;;;;;;;;2.83;100.00;102947.53;5062863;28;19928;-75
2022/12/01 08:48:32;;;;;;;;;;;;;;;2.83;100.00;102958.00;5064653;28;19924;-75
2022/12/01 08:51:04;;;;;;;;;;;;;;;2.85;100.00;102956.28;5059980;28;20378;-74
2022/12/01 08:53:30;;;;;;;;;;;;;;;2.87;100.00;102958.06;5067296;28;19931;-75
2022/12/01 08:55:57;;;;;;;;;;;;;;;2.87;100.00;102958.06;5061990;28;19932;-75
2022/12/01 08:58:23;;;;;;;;;;;;;;;2.87;100.00;102951.09;5062426;28;19931;-75
2022/12/01 09:00:49;;;;;;;;;;;;;;;2.89;100.00;102948.50;5051361;28;19928;-75
2022/12/01 09:03:14;;;;;;;;;;;;;;;2.92;100.00;102951.19;5062452;28;19932;-76
2022/12/01 09:05:39;;;;;;;;;;;;;;;2.96;100.00;102955.63;5063205;28;20023;-74
2022/12/01 09:10:52;;;;;;;;;;;;;;;3.01;100.00;102950.47;5065750;28;19931;-74
2022/12/01 09:13:17;;;;;;;;;;;;;;;3.02;100.00;102950.53;5065293;28;19963;-73
2022/12/01 09:15:42;;;;;;;;;;;;;;;3.05;100.00;102945.34;5050633;28;20003;-75
2022/12/01 09:18:08;;;;;;;;;;;;;;;3.06;100.00;102949.72;5065679;28;19928;-75
2022/12/01 09:20:33;;;;;;;;;;;;;;;3.07;100.00;102955.84;5061396;28;20356;-75
2022/12/01 09:22:59;;;;;;;;;;;;;;;3.10;100.00;102950.66;5063544;28;20034;-74
2022/12/01 09:25:24;;;;;;;;;;;;;;;3.10;100.00;102961.13;5063148;28;19936;-74
2022/12/01 09:27:50;;;;;;;;;;;;;;;3.14;100.00;102960.34;5063245;28;19928;-75
2022/12/01 09:30:15;;;;;;;;;;;;;;;3.19;100.00;102956.09;5062916;28;19975;-75
2022/12/01 09:32:41;;;;;;;;;;;;;;;3.23;100.00;102952.66;5058635;28;20310;-75
2022/12/01 09:35:07;;;;;;;;;;;;;;;3.23;100.00;102950.03;5064787;28;19993;-74
2022/12/01 09:37:32;;;;;;;;;;;;;;;3.24;100.00;102948.31;5062596;28;19925;-75
2022/12/01 09:39:57;;;;;;;;;;;;;;;3.26;100.00;102946.59;5062450;28;21519;-74
2022/12/01 09:42:26;;;;;;;;;;;;;;;3.29;100.00;102951.91;5062354;28;21452;-74
2022/12/01 09:44:52;;;;;;;;;;;;;;;3.31;100.00;102958.06;5059903;28;19928;-74
2022/12/01 09:47:23;;;;;;;;;;;;;;;3.32;100.00;102951.97;5059160;28;19936;-74
2022/12/01 09:49:54;;;;;;;;;;;;;;;3.34;100.00;102950.28;5065651;28;19931;-74
2022/12/01 09:52:20;;;;;;;;;;;;;;;3.38;100.00;102953.84;5061157;28;19928;-75
2022/12/01 09:54:46;;;;;;;;;;;;;;;3.41;100.00;102953.88;5064244;28;20395;-74
2022/12/01 09:57:31;;;;;;;;;;;;;;;3.44;100.00;102951.34;5056146;28;19989;-75
2022/12/01 09:59:57;;;;;;;;;;;;;;;3.49;100.00;102941.78;5060703;28;19927;-74
2022/12/01 10:02:28;;;;;;;;;;;;;;;3.52;100.00;102946.22;5056778;28;19924;-74
2022/12/01 10:04:54;;;;;;;;;;;;;;;3.54;100.00;102949.72;5057883;28;19931;-75
2022/12/01 10:07:27;;;;;;;;;;;;;;;3.58;100.00;102938.47;5061179;28;19924;-75
2022/12/01 10:10:00;;;;;;;;;;;;;;;3.63;100.00;102933.28;5059063;28;20379;-75
2022/12/01 10:12:28;;;;;;;;;;;;;;;3.67;100.00;102937.75;5041930;28;19939;-75
2022/12/01 10:14:59;;;;;;;;;;;;;;;3.73;100.00;102922.13;5058521;28;19947;-75
2022/12/01 10:17:31;;;;;;;;;;;;;;;3.77;100.00;102926.53;5055283;28;20290;-74
2022/12/01 10:20:02;;;;;;;;;;;;;;;3.78;100.00;102933.56;5058127;28;20507;-74
2022/12/01 10:22:47;;;;;;;;;;;;;;;3.83;100.00;102932.75;5059522;28;19924;-75
2022/12/01 10:25:22;;;;;;;;;;;;;;;3.85;100.00;102929.31;5040570;28;19932;-75
2022/12/01 10:28:00;;;;;;;;;;;;;;;3.88;100.00;102926.72;5058345;28;20675;-75
2022/12/01 10:30:26;;;;;;;;;;;;;;;3.91;100.00;102928.50;5058347;28;19928;-77
2022/12/01 10:32:56;;;;;;;;;;;;;;;3.93;100.00;102922.44;5057637;28;19935;-76
2022/12/01 10:35:22;;;;;;;;;;;;;;;3.96;100.00;102923.38;5052129;28;20101;-74
2022/12/01 10:37:55;;;;;;;;;;;;;;;4.00;100.00;102920.81;5049712;28;20020;-75
2022/12/01 10:40:21;;;;;;;;;;;;;;;4.06;100.00;102930.50;5057284;28;19924;-74
2022/12/01 10:42:48;;;;;;;;;;;;;;;4.09;100.00;102925.31;5053612;28;20276;-74
2022/12/01 10:45:21;;;;;;;;;;;;;;;4.12;100.00;102930.59;5058641;28;19928;-74
2022/12/01 10:48:05;;;;;;;;;;;;;;;4.15;100.00;102920.13;5057271;28;20493;-75
2022/12/01 10:50:31;;;;;;;;;;;;;;;4.18;100.00;102919.31;5057332;28;19924;-74
2022/12/01 10:53:01;;;;;;;;;;;;;;;4.21;100.00;102917.59;5041373;28;22539;-75
2022/12/01 10:55:28;;;;;;;;;;;;;;;4.26;100.00;102916.81;5060900;28;20402;-74
2022/12/01 10:57:55;;;;;;;;;;;;;;;4.30;100.00;102913.38;5057808;28;21615;-75
2022/12/01 11:00:21;;;;;;;;;;;;;;;4.31;100.00;102905.50;5053177;28;19935;-75
2022/12/01 11:02:46;;;;;;;;;;;;;;;4.34;100.00;102912.53;5051605;28;20410;-76
2022/12/01 11:05:25;;;;;;;;;;;;;;;4.36;100.00;102908.19;5061061;28;20015;-74
2022/12/01 11:07:50;;;;;;;;;;;;;;;4.38;100.00;102903.88;5063428;28;21612;-75
2022/12/01 11:10:26;;;;;;;;;;;;;;;4.40;100.00;102904.75;5061400;28;19928;-75
2022/12/01 11:12:54;;;;;;;;;;;;;;;4.42;100.00;102900.41;5053175;28;19951;-75
2022/12/01 11:15:21;;;;;;;;;;;;;;;4.42;100.00;102896.91;5057637;28;19929;-75
2022/12/01 11:17:47;;;;;;;;;;;;;;;4.43;100.00;102893.44;5040887;28;19924;-75
2022/12/01 11:20:29;;;;;;;;;;;;;;;4.43;100.00;102889.09;5039972;28;19997;-75
2022/12/01 11:23:15;;;;;;;;;;;;;;;4.44;100.00;102888.22;5063929;28;20387;-75
2022/12/01 11:25:41;;;;;;;;;;;;;;;4.44;100.00;102890.84;5039581;28;20069;-75
2022/12/01 11:28:06;;;;;;;;;;;;;;;4.44;100.00;102885.59;5062935;28;19932;-75
2022/12/01 11:30:31;;;;;;;;;;;;;;;4.44;100.00;102884.69;5043791;28;19935;-75
2022/12/01 11:32:58;;;;;;;;;;;;;;;4.47;100.00;102884.75;5060872;28;19932;-74
2022/12/01 11:35:24;;;;;;;;;;;;;;;4.48;100.00;102876.88;5059078;28;19925;-74
2022/12/01 11:37:51;;;;;;;;;;;;;;;4.49;100.00;102873.38;5058981;28;19929;-75
2022/12/01 11:40:20;;;;;;;;;;;;;;;4.51;100.00;102878.66;5024344;28;19928;-75
2022/12/01 11:42:46;;;;;;;;;;;;;;;4.54;100.00;102876.09;5051145;28;19927;-75
2022/12/01 11:45:31;;;;;;;;;;;;;;;4.54;100.00;102881.34;5037357;28;19921;-75
2022/12/01 11:48:08;;;;;;;;;;;;;;;4.56;100.00;102882.25;5056079;28;20023;-75
2022/12/01 11:50:35;;;;;;;;;;;;;;;4.60;100.00;102883.16;5035210;28;20295;-74
2022/12/01 11:53:00;;;;;;;;;;;;;;;4.63;100.00;102883.19;5057852;28;19932;-74
2022/12/01 11:55:27;;;;;;;;;;;;;;;4.66;100.00;102885.84;5052527;28;19924;-74
2022/12/01 11:57:54;;;;;;;;;;;;;;;4.69;100.00;102880.63;5056255;28;19928;-74
2022/12/01 12:00:24;;;;;;;;;;;;;;;4.73;100.00;102881.53;5042483;28;20536;-74
2022/12/01 12:02:57;;;;;;;;;;;;;;;4.78;100.00;102879.00;5037902;28;20698;-74
2022/12/01 12:05:48;;;;;;;;;;;;;;;4.84;100.00;102873.78;5048638;28;19939;-75
2022/12/01 12:08:26;;;;;;;;;;;;;;;4.93;100.00;102873.91;5044060;28;19977;-75
2022/12/01 12:11:20;;;;;;;;;;;;;;;5.02;100.00;102873.13;5045051;28;19924;-75
2022/12/01 12:13:58;;;;;;;;;;;;;;;5.09;100.00;102861.84;5051975;28;19959;-75
2022/12/01 12:16:24;;;;;;;;;;;;;;;5.18;100.00;102865.41;5056466;28;20368;-75
2022/12/01 12:18:49;;;;;;;;;;;;;;;5.22;100.00;102867.22;5059287;28;19954;-75
2022/12/01 12:21:24;;;;;;;;;;;;;;;5.24;100.00;102855.81;5059472;28;19924;-75
2022/12/01 12:23:55;;;;;;;;;;;;;;;5.26;100.00;102863.72;5058372;28;20293;-75
2022/12/01 12:26:21;;;;;;;;;;;;;;;5.25;100.00;102865.50;5044904;28;20011;-75
2022/12/01 12:29:04;;;;;;;;;;;;;;;5.25;100.00;102860.25;5062175;28;19935;-75
2022/12/01 12:31:48;;;;;;;;;;;;;;;5.25;100.00;102859.34;5057041;28;19952;-75
2022/12/01 12:34:24;;;;;;;;;;;;;;;5.24;100.00;102860.22;5058849;28;19924;-76
2022/12/01 12:36:52;;;;;;;;;;;;;;;5.22;100.00;102859.31;5060776;28;21693;-75
2022/12/01 12:39:30;;;;;;;;;;;;;;;5.20;100.00;102855.78;5042096;28;19960;-75
2022/12/01 12:41:56;;;;;;;;;;;;;;;5.19;100.00;102854.94;5065325;28;19928;-75
2022/12/01 12:44:40;;;;;;;;;;;;;;;5.15;100.00;102853.13;5055371;28;20350;-75
2022/12/01 12:47:05;;;;;;;;;;;;;;;5.12;100.00;102850.47;5060603;28;19943;-75